createdAt,value
2022-10-30T00:01:43.725Z,101309.41
2022-10-30T00:06:46.627Z,101308.94
2022-10-30T00:11:50.764Z,101299.72
2022-10-30T00:16:53.595Z,101294.72
2022-10-30T00:27:00.665Z,101292.81
2022-10-30T00:32:03.451Z,101296.81
2022-10-30T00:37:06.417Z,101289.81
2022-10-30T00:42:13.926Z,101294.56
2022-10-30T00:47:20.930Z,101293.69
2022-10-30T00:52:26.402Z,101286.88
2022-10-30T00:57:31.267Z,101286.56
2022-10-30T01:02:34.637Z,101280.50
2022-10-30T01:07:37.607Z,101262.78
2022-10-30T01:12:43.920Z,101270.19
2022-10-30T01:18:03.732Z,101266.97
2022-10-30T01:23:21.165Z,101268.88
2022-10-30T01:28:41.807Z,101268.75
2022-10-30T01:34:07.209Z,101266.97
2022-10-30T01:39:15.486Z,101265.09
2022-10-30T01:44:24.965Z,101264.16
2022-10-30T01:49:51.251Z,101252.34
2022-10-30T01:55:01.114Z,101240.28
2022-10-30T02:00:07.879Z,101239.97
2022-10-30T02:05:23.171Z,101236.97
2022-10-30T02:10:26.140Z,101240.19
2022-10-30T02:15:32.258Z,101231.09
2022-10-30T02:20:37.059Z,101235.72
2022-10-30T02:25:39.824Z,101245.72
2022-10-30T02:30:44.078Z,101243.09
2022-10-30T02:35:48.329Z,101241.78
2022-10-30T02:40:51.572Z,101249.31
2022-10-30T02:45:55.399Z,101247.50
2022-10-30T02:51:01.812Z,101248.91
2022-10-30T02:56:06.753Z,101249.16
2022-10-30T03:01:11.332Z,101260.84
2022-10-30T03:06:17.757Z,101261.44
2022-10-30T03:11:21.572Z,101258.72
2022-10-30T03:16:26.855Z,101255.44
2022-10-30T03:21:32.217Z,101266.72
2022-10-30T03:26:34.992Z,101272.03
2022-10-30T03:31:42.432Z,101262.72
2022-10-30T03:36:56.324Z,101262.63
2022-10-30T03:41:59.675Z,101267.41
2022-10-30T03:47:03.536Z,101266.03
2022-10-30T03:52:12.030Z,101264.72
2022-10-30T03:57:14.803Z,101272.78
2022-10-30T04:02:31.259Z,101272.06
2022-10-30T04:07:35.403Z,101277.13
2022-10-30T04:12:38.399Z,101280.75
2022-10-30T04:17:41.526Z,101280.06
2022-10-30T04:22:45.864Z,101276.97
2022-10-30T04:27:54.017Z,101268.09
2022-10-30T04:32:59.001Z,101262.97
2022-10-30T04:38:05.176Z,101268.38
2022-10-30T04:43:11.723Z,101260.13
2022-10-30T04:48:16.600Z,101259.75
2022-10-30T04:53:22.039Z,101263.53
2022-10-30T04:58:29.283Z,101260.94
2022-10-30T05:03:39.445Z,101253.94
2022-10-30T05:08:49.613Z,101251.19
2022-10-30T05:14:11.226Z,101249.88
2022-10-30T05:19:14.074Z,101251.34
2022-10-30T05:24:26.634Z,101262.13
2022-10-30T05:29:30.693Z,101259.22
2022-10-30T05:34:34.320Z,101259.03
2022-10-30T05:39:38.682Z,101263.22
2022-10-30T05:45:01.004Z,101266.16
2022-10-30T05:50:07.710Z,101261.53
2022-10-30T05:55:13.448Z,101271.63
2022-10-30T06:00:25.957Z,101259.94
2022-10-30T06:05:31.781Z,101271.34
2022-10-30T06:10:36.801Z,101279.81
2022-10-30T06:15:46.405Z,101284.13
2022-10-30T06:20:49.638Z,101276.31
2022-10-30T06:25:53.809Z,101292.13
2022-10-30T06:30:58.901Z,101286.22
2022-10-30T06:36:01.704Z,101288.47
2022-10-30T06:41:06.272Z,101291.69
2022-10-30T06:46:41.296Z,101297.69
2022-10-30T06:51:45.306Z,101305.09
2022-10-30T06:56:52.428Z,101299.34
2022-10-30T07:02:14.180Z,101302.22
2022-10-30T07:07:32.915Z,101301.94
2022-10-30T07:12:37.910Z,101303.31
2022-10-30T07:17:57.510Z,101309.13
2022-10-30T07:23:04.105Z,101313.59
2022-10-30T07:28:09.140Z,101322.72
2022-10-30T07:33:17.610Z,101315.97
2022-10-30T07:38:46.301Z,101325.16
2022-10-30T07:44:05.581Z,101327.34
2022-10-30T07:49:23.648Z,101330.38
2022-10-30T07:54:33.241Z,101337.78
2022-10-30T07:59:49.829Z,101340.19
2022-10-30T08:05:11.641Z,101348.19
2022-10-30T08:10:36.861Z,101341.88
2022-10-30T08:15:41.149Z,101350.53
2022-10-30T08:26:00.373Z,101348.09
2022-10-30T08:31:06.414Z,101345.41
2022-10-30T08:36:28.011Z,101349.34
2022-10-30T08:41:31.228Z,101353.06
2022-10-30T08:46:35.615Z,101347.28
2022-10-30T08:51:38.660Z,101348.97
2022-10-30T08:56:43.580Z,101354.00
2022-10-30T09:01:51.137Z,101355.56
2022-10-30T09:06:57.082Z,101354.53
2022-10-30T09:12:35.490Z,101346.97
2022-10-30T09:17:39.882Z,101356.19
2022-10-30T09:22:43.374Z,101358.31
2022-10-30T09:27:47.699Z,101349.63
2022-10-30T09:32:57.873Z,101349.66
2022-10-30T09:38:13.774Z,101349.59
2022-10-30T09:43:28.648Z,101346.69
2022-10-30T09:49:15.155Z,101351.81
2022-10-30T09:54:26.482Z,101347.09
2022-10-30T09:59:41.834Z,101338.56
2022-10-30T10:04:51.042Z,101349.41
2022-10-30T10:10:19.606Z,101344.41
2022-10-30T10:15:39.483Z,101342.16
2022-10-30T10:20:48.179Z,101346.56
2022-10-30T10:25:54.798Z,101344.25
2022-10-30T10:31:08.420Z,101337.00
2022-10-30T10:36:25.717Z,101320.47
2022-10-30T10:41:39.256Z,101321.16
2022-10-30T10:47:03.014Z,101325.28
2022-10-30T10:52:15.634Z,101324.16
2022-10-30T10:57:26.130Z,101320.03
2022-10-30T11:02:41.602Z,101311.66
2022-10-30T11:07:48.811Z,101319.00
2022-10-30T11:12:51.566Z,101317.03
2022-10-30T11:18:01.309Z,101324.34
2022-10-30T11:23:32.381Z,101312.13
2022-10-30T11:28:43.214Z,101323.91
2022-10-30T11:33:45.987Z,101322.13
2022-10-30T11:38:50.111Z,101307.88
2022-10-30T11:43:53.061Z,101314.50
2022-10-30T11:48:56.424Z,101318.69
2022-10-30T11:54:02.264Z,101322.75
2022-10-30T11:59:07.566Z,101308.47
2022-10-30T12:04:23.349Z,101306.41
2022-10-30T12:09:27.559Z,101307.22
2022-10-30T12:14:30.627Z,101305.66
2022-10-30T12:19:33.651Z,101314.22
2022-10-30T12:24:40.471Z,101314.50
2022-10-30T12:30:07.506Z,101324.09
2022-10-30T12:35:23.169Z,101317.09
2022-10-30T12:40:31.488Z,101310.91
2022-10-30T12:45:41.235Z,101305.84
2022-10-30T12:50:48.930Z,101310.50
2022-10-30T12:55:59.508Z,101310.94
2022-10-30T13:01:10.542Z,101302.78
2022-10-30T13:06:17.801Z,101305.03
2022-10-30T13:11:34.082Z,101295.91
2022-10-30T13:16:36.952Z,101297.53
2022-10-30T13:21:48.578Z,101299.91
2022-10-30T13:26:57.636Z,101300.97
2022-10-30T13:32:12.661Z,101300.97
2022-10-30T13:37:22.728Z,101308.69
2022-10-30T13:42:40.022Z,101295.91
2022-10-30T13:47:50.437Z,101288.34
2022-10-30T13:52:58.707Z,101292.69
2022-10-30T13:58:11.481Z,101295.72
2022-10-30T14:03:25.459Z,101285.59
2022-10-30T14:08:36.428Z,101294.72
2022-10-30T14:13:54.068Z,101284.81
2022-10-30T14:19:01.993Z,101283.91
2022-10-30T14:24:12.167Z,101299.25
2022-10-30T14:29:45.268Z,101296.47
2022-10-30T14:34:58.967Z,101306.75
2022-10-30T14:40:38.988Z,101294.34
2022-10-30T14:45:49.436Z,101293.09
2022-10-30T14:51:05.699Z,101291.09
2022-10-30T14:56:24.852Z,101295.59
2022-10-30T15:01:37.818Z,101286.25
2022-10-30T15:06:53.851Z,101286.22
2022-10-30T15:12:35.002Z,101283.25
2022-10-30T15:17:41.136Z,101283.78
2022-10-30T15:22:44.492Z,101282.63
2022-10-30T15:27:52.013Z,101282.66
2022-10-30T15:32:55.935Z,101279.31
2022-10-30T15:38:01.177Z,101282.91
2022-10-30T15:43:08.161Z,101292.25
2022-10-30T15:48:23.397Z,101287.03
2022-10-30T15:53:31.240Z,101295.44
2022-10-30T15:58:37.404Z,101287.91
2022-10-30T16:03:43.215Z,101299.47
2022-10-30T16:08:49.219Z,101315.28
2022-10-30T16:13:54.503Z,101312.25
2022-10-30T16:19:01.489Z,101308.38
2022-10-30T16:24:05.571Z,101301.00
2022-10-30T16:29:24.248Z,101309.34
2022-10-30T16:34:31.793Z,101300.38
2022-10-30T16:39:35.980Z,101309.28
2022-10-30T16:44:40.105Z,101314.03
2022-10-30T16:49:49.465Z,101315.47
2022-10-30T16:55:00.254Z,101319.50
2022-10-30T17:00:06.592Z,101314.22
2022-10-30T17:05:12.938Z,101327.06
2022-10-30T17:10:32.767Z,101329.94
2022-10-30T17:15:37.540Z,101327.88
2022-10-30T17:20:40.868Z,101331.56
2022-10-30T17:25:43.648Z,101334.25
2022-10-30T17:30:48.000Z,101333.63
2022-10-30T17:35:51.610Z,101338.72
2022-10-30T17:40:54.623Z,101336.38
2022-10-30T17:45:59.211Z,101345.09
2022-10-30T17:51:02.005Z,101349.84
2022-10-30T17:56:12.174Z,101349.47
2022-10-30T18:01:18.035Z,101356.13
2022-10-30T18:06:22.859Z,101362.06
2022-10-30T18:11:27.057Z,101372.75
2022-10-30T18:16:31.281Z,101368.34
2022-10-30T18:21:34.058Z,101363.56
2022-10-30T18:26:40.488Z,101371.91
2022-10-30T18:31:45.195Z,101366.19
2022-10-30T18:36:48.473Z,101367.41
2022-10-30T18:41:51.279Z,101372.41
2022-10-30T18:47:00.048Z,101369.91
2022-10-30T18:52:05.727Z,101379.41
2022-10-30T18:57:10.314Z,101379.53
2022-10-30T19:02:24.168Z,101387.56
2022-10-30T19:07:27.083Z,101374.16
2022-10-30T19:12:29.829Z,101393.78
2022-10-30T19:17:33.961Z,101382.38
2022-10-30T19:22:36.960Z,101378.25
2022-10-30T19:27:39.753Z,101381.78
2022-10-30T19:32:44.066Z,101379.38
2022-10-30T19:37:47.436Z,101372.84
2022-10-30T19:42:50.414Z,101379.47
2022-10-30T19:47:56.280Z,101383.47
2022-10-30T19:53:00.990Z,101382.06
2022-10-30T19:58:05.403Z,101393.47
2022-10-30T20:03:11.455Z,101398.22
2022-10-30T20:08:16.444Z,101399.53
2022-10-30T20:13:20.288Z,101391.28
2022-10-30T20:18:30.607Z,101386.41
2022-10-30T20:23:33.444Z,101399.81
2022-10-30T20:28:37.942Z,101402.00
2022-10-30T20:33:42.230Z,101398.19
2022-10-30T20:38:45.008Z,101407.50
2022-10-30T20:43:53.867Z,101416.91
2022-10-30T20:48:58.203Z,101421.69
2022-10-30T20:54:01.092Z,101421.50
2022-10-30T20:59:03.990Z,101421.28
2022-10-30T21:04:08.098Z,101417.25
2022-10-30T21:09:10.895Z,101421.34
2022-10-30T21:14:13.674Z,101429.50
2022-10-30T21:19:17.866Z,101427.28
2022-10-30T21:24:20.664Z,101425.41
2022-10-30T21:29:23.445Z,101415.44
2022-10-30T21:34:27.569Z,101424.47
2022-10-30T21:39:30.326Z,101422.34
2022-10-30T21:44:33.096Z,101423.03
2022-10-30T21:49:37.257Z,101414.56
2022-10-30T21:54:40.755Z,101418.19
2022-10-30T21:59:43.573Z,101415.81
2022-10-30T22:04:49.326Z,101421.59
2022-10-30T22:09:53.463Z,101416.88
2022-10-30T22:14:57.446Z,101426.75
2022-10-30T22:20:01.840Z,101431.53
2022-10-30T22:25:04.818Z,101431.09
2022-10-30T22:30:08.559Z,101439.97
2022-10-30T22:35:12.655Z,101435.84
2022-10-30T22:40:15.551Z,101435.50
2022-10-30T22:45:18.377Z,101446.69
2022-10-30T22:50:22.619Z,101446.81
2022-10-30T22:55:25.632Z,101450.19
2022-10-30T23:00:28.634Z,101444.75
2022-10-30T23:05:32.799Z,101445.66
2022-10-30T23:10:35.586Z,101455.03
2022-10-30T23:15:39.987Z,101462.25
2022-10-30T23:20:45.793Z,101472.28
2022-10-30T23:25:48.720Z,101473.22
2022-10-30T23:30:51.572Z,101480.28
2022-10-30T23:36:00.803Z,101472.22
2022-10-30T23:41:03.687Z,101474.56
2022-10-30T23:46:07.035Z,101495.44
2022-10-30T23:51:11.648Z,101491.16
2022-10-30T23:56:14.906Z,101487.56
